Flight Number: AVA6219 Duration: 3:30
Departure: Samarkand (UTSS) at 10:15 Distance: 1490 Nm
Arrival: Domodedovo (UUDD) at 13:45 Equipment: B737

Weather Information
Samarkand, Uzbekistan (UTSS) 39-34N 066-57E 724M Jun 19, 2024 - 08:30 AM EDT / 2024.06.19 1230 UTC
Wind: from the ENE (060 degrees) at 14 MPH (12 KT) (direction variable):0
Visibility: greater than 7 mile(s):0 Temperature: 91 F (33 C) Dew Point: 51 F (11 C) Relative Humidity: 26% Pressure (altimeter): 29.74 in. Hg (1007 hPa)
ob: UTSS 191230Z 06012KT 020V100 9999 NSC 33/11 Q1007 R09/CLRD70 NOSIG cycle: 12
Sunrise: 00:07 Sunset: 14:59 (UTC)

Moscow / Domodedovo, Russia (UUDD) 55-24N 037-54E Jun 19, 2024 - 08:30 AM EDT / 2024.06.19 1230 UTC
Wind: from the SW (230 degrees) at 11 MPH (10 KT) (direction variable):0
Visibility: greater than 7 mile(s):0 Temperature: 77 F (25 C) Dew Point: 57 F (14 C) Relative Humidity: 50% Pressure (altimeter): 29.94 in. Hg (1014 hPa)
ob: UUDD 191230Z 23005MPS 190V250 CAVOK 25/14 Q1014 R32L/CLRD60 NOSIG cycle: 12
Sunrise: 00:51 Sunset: 18:08 (UTC)

TAF:2024/06/19 12:21 TAF UUDD 191056Z 1912/2018 27006G12MPS 9999 SCT020 TX26/2008Z TN18/2001Z BECMG 1915/1917 21006MPS TEMPO 1919/2006 21008G13MPS -TSRA BKN020CB TEMPO 2006/2014 VRB22MPS 0600 +TSRAGR SQ FEW004 BKN016CB BECMG 2014/2015 31009G16MPS

Previous Pireps for this route
Date Flightnr Aircraft Flight time Fuel used Landing rate On time
2022-02-08AVA6219B73704.0923547-293Yes
2022-06-28AVA6219B73704.0322595-201No
(pireps marked green are flown by you)

Route map